createdAt,value
2023-05-13T00:02:09.684Z,9.42
2023-05-13T00:04:36.617Z,8.65
2023-05-13T00:07:03.374Z,7.94
2023-05-13T00:09:30.950Z,7.42
2023-05-13T00:11:57.923Z,7.02
2023-05-13T00:14:24.918Z,6.70
2023-05-13T00:16:52.121Z,6.44
2023-05-13T00:19:27.531Z,6.18
2023-05-13T00:22:00.838Z,5.96
2023-05-13T00:24:32.444Z,5.77
2023-05-13T00:27:01.319Z,5.61
2023-05-13T00:29:28.129Z,5.45
2023-05-13T00:31:55.225Z,5.31
2023-05-13T00:34:24.690Z,5.17
2023-05-13T00:36:51.537Z,5.07
2023-05-13T00:39:23.470Z,4.97
2023-05-13T00:41:50.368Z,4.87
2023-05-13T00:44:17.174Z,4.79
2023-05-13T00:46:43.692Z,4.73
2023-05-13T00:49:10.482Z,4.68
2023-05-13T00:51:37.030Z,4.63
2023-05-13T00:54:03.977Z,4.96
2023-05-13T00:56:30.575Z,6.36
2023-05-13T00:58:57.277Z,7.64
2023-05-13T01:01:52.449Z,8.22
2023-05-13T01:04:50.009Z,8.71
2023-05-13T01:07:56.378Z,9.12
2023-05-13T01:10:50.696Z,9.43
2023-05-13T01:13:22.580Z,9.58
2023-05-13T01:16:01.103Z,8.91
2023-05-13T01:18:41.196Z,8.03
2023-05-13T01:21:08.045Z,7.41
2023-05-13T01:23:34.874Z,6.96
2023-05-13T01:26:01.628Z,6.61
2023-05-13T01:28:29.787Z,6.31
2023-05-13T01:30:57.155Z,6.06
2023-05-13T01:33:24.290Z,5.88
2023-05-13T01:35:50.955Z,5.70
2023-05-13T01:38:19.130Z,5.54
2023-05-13T01:40:48.372Z,5.40
2023-05-13T01:43:15.147Z,5.27
2023-05-13T01:45:41.789Z,5.17
2023-05-13T01:48:08.568Z,5.08
2023-05-13T01:50:42.619Z,5.00
2023-05-13T01:53:10.088Z,4.95
2023-05-13T01:55:37.855Z,4.91
2023-05-13T01:58:05.580Z,4.89
2023-05-13T02:00:32.352Z,5.43
2023-05-13T02:02:59.229Z,6.44
2023-05-13T02:05:25.998Z,7.24
2023-05-13T02:07:54.175Z,7.84
2023-05-13T02:10:21.028Z,8.32
2023-05-13T02:12:47.925Z,8.70
2023-05-13T02:15:14.563Z,9.02
2023-05-13T02:17:41.832Z,9.30
2023-05-13T02:20:10.165Z,9.55
2023-05-13T02:22:37.000Z,9.75
2023-05-13T02:25:09.307Z,9.68
2023-05-13T02:27:36.921Z,8.91
2023-05-13T02:30:06.008Z,8.13
2023-05-13T02:32:32.766Z,7.55
2023-05-13T02:34:59.592Z,7.11
2023-05-13T02:37:26.787Z,6.74
2023-05-13T02:39:58.116Z,6.42
2023-05-13T02:42:24.807Z,6.14
2023-05-13T02:44:51.445Z,5.90
2023-05-13T02:47:19.127Z,5.69
2023-05-13T02:49:45.976Z,5.51
2023-05-13T02:52:13.120Z,5.35
2023-05-13T02:54:40.271Z,5.22
2023-05-13T02:57:09.622Z,5.09
2023-05-13T02:59:36.613Z,4.98
2023-05-13T03:02:03.256Z,4.87
2023-05-13T03:04:29.884Z,4.79
2023-05-13T03:06:56.529Z,4.72
2023-05-13T03:09:23.165Z,4.95
2023-05-13T03:11:50.121Z,5.89
2023-05-13T03:14:17.010Z,6.85
2023-05-13T03:16:44.402Z,7.59
2023-05-13T03:19:12.737Z,8.15
2023-05-13T03:21:39.897Z,8.58
2023-05-13T03:24:08.153Z,8.90
2023-05-13T03:26:35.357Z,9.15
2023-05-13T03:29:03.537Z,9.38
2023-05-13T03:31:30.576Z,9.48
2023-05-13T03:33:58.853Z,8.82
2023-05-13T03:36:26.685Z,8.00
2023-05-13T03:38:53.250Z,7.38
2023-05-13T03:41:20.362Z,6.90
2023-05-13T03:43:47.280Z,6.55
2023-05-13T03:46:15.810Z,6.26
2023-05-13T03:48:44.414Z,6.05
2023-05-13T03:51:11.177Z,5.97
2023-05-13T03:53:39.161Z,6.01
2023-05-13T03:56:05.867Z,6.19
2023-05-13T03:58:34.968Z,6.43
2023-05-13T04:01:03.618Z,6.67
2023-05-13T04:03:30.868Z,6.95
2023-05-13T04:05:57.602Z,7.28
2023-05-13T04:08:24.445Z,8.25
2023-05-13T04:10:51.205Z,9.58
2023-05-13T04:13:21.336Z,10.70
2023-05-13T04:15:49.852Z,11.63
2023-05-13T04:18:16.462Z,12.20
2023-05-13T04:20:43.180Z,12.05
2023-05-13T04:23:12.531Z,11.92
2023-05-13T04:25:40.554Z,11.95
2023-05-13T04:28:07.522Z,12.11
2023-05-13T04:30:38.864Z,12.33
2023-05-13T04:33:07.757Z,12.63
2023-05-13T04:35:35.548Z,13.00
2023-05-13T04:38:05.161Z,13.45
2023-05-13T04:40:31.792Z,14.02
2023-05-13T04:43:04.311Z,14.84
2023-05-13T04:45:36.448Z,15.87
2023-05-13T04:48:04.264Z,16.78
2023-05-13T04:50:31.518Z,17.60
2023-05-13T04:52:58.790Z,18.42
2023-05-13T04:55:27.509Z,19.21
2023-05-13T04:57:55.971Z,19.91
2023-05-13T05:00:23.620Z,20.51
2023-05-13T05:02:51.293Z,21.09
2023-05-13T05:05:18.530Z,21.82
2023-05-13T05:07:45.849Z,22.57
2023-05-13T05:10:14.635Z,23.30
2023-05-13T05:12:46.226Z,24.00
2023-05-13T05:15:15.109Z,24.65
2023-05-13T05:17:43.649Z,25.18
2023-05-13T05:20:12.813Z,25.70
2023-05-13T05:22:41.493Z,26.14
2023-05-13T05:25:10.027Z,26.45
2023-05-13T05:27:36.710Z,26.66
2023-05-13T05:30:04.779Z,26.98
2023-05-13T05:32:33.673Z,27.54
2023-05-13T05:35:03.323Z,27.97
2023-05-13T05:37:32.296Z,28.30
2023-05-13T05:39:59.131Z,28.47
2023-05-13T05:42:27.383Z,28.58
2023-05-13T05:44:54.136Z,28.72
2023-05-13T05:47:21.345Z,28.78
2023-05-13T05:49:47.958Z,29.01
2023-05-13T05:52:15.309Z,29.25
2023-05-13T05:54:42.079Z,29.48
2023-05-13T05:57:11.449Z,29.54
2023-05-13T05:59:39.112Z,29.66
2023-05-13T06:02:05.903Z,29.67
2023-05-13T06:04:32.718Z,29.49
2023-05-13T06:06:59.426Z,29.42
2023-05-13T06:09:26.812Z,29.40
2023-05-13T06:11:54.510Z,29.30
2023-05-13T06:14:21.144Z,29.35
2023-05-13T06:16:48.612Z,29.57
2023-05-13T06:19:16.758Z,29.68
2023-05-13T06:21:44.444Z,29.56
2023-05-13T06:24:12.047Z,29.36
2023-05-13T06:26:40.550Z,29.37
2023-05-13T06:29:07.132Z,29.44
2023-05-13T06:31:33.799Z,29.58
2023-05-13T06:34:00.982Z,29.69
2023-05-13T06:36:27.587Z,29.71
2023-05-13T06:38:55.185Z,29.51
2023-05-13T06:41:23.248Z,29.40
2023-05-13T06:43:52.047Z,29.40
2023-05-13T06:46:27.654Z,29.56
2023-05-13T06:48:56.584Z,29.71
2023-05-13T06:51:25.672Z,29.68
2023-05-13T06:53:52.951Z,29.61
2023-05-13T06:56:20.927Z,29.66
2023-05-13T06:58:48.455Z,29.68
2023-05-13T07:01:16.399Z,29.86
2023-05-13T07:03:43.230Z,29.96
2023-05-13T07:06:10.667Z,29.92
2023-05-13T07:08:38.035Z,30.07
2023-05-13T07:11:04.639Z,30.01
2023-05-13T07:13:32.893Z,29.79
2023-05-13T07:16:02.946Z,29.49
2023-05-13T07:18:29.702Z,29.27
2023-05-13T07:20:56.459Z,29.24
2023-05-13T07:23:23.432Z,29.23
2023-05-13T07:25:51.621Z,29.36
2023-05-13T07:28:22.422Z,29.66
2023-05-13T07:30:49.203Z,29.95
2023-05-13T07:33:16.708Z,30.01
2023-05-13T07:35:43.410Z,29.87
2023-05-13T07:38:12.929Z,29.90
2023-05-13T07:40:41.003Z,30.16
2023-05-13T07:43:08.785Z,30.21
2023-05-13T07:45:36.522Z,30.21
2023-05-13T07:48:04.975Z,30.29
2023-05-13T07:50:32.156Z,30.31
2023-05-13T07:52:58.771Z,30.48
2023-05-13T07:55:25.701Z,30.81
2023-05-13T07:57:52.631Z,31.06
2023-05-13T08:00:19.597Z,31.22
2023-05-13T08:02:50.709Z,31.19
2023-05-13T08:05:18.539Z,30.77
2023-05-13T08:07:45.151Z,30.38
2023-05-13T08:10:11.704Z,30.27
2023-05-13T08:12:39.897Z,30.27
2023-05-13T08:15:07.958Z,30.25
2023-05-13T08:17:34.780Z,30.31
2023-05-13T08:20:01.767Z,30.36
2023-05-13T08:22:28.529Z,30.22
2023-05-13T08:24:55.195Z,30.21
2023-05-13T08:27:22.874Z,29.84
2023-05-13T08:29:49.479Z,29.04
2023-05-13T08:32:18.098Z,28.25
2023-05-13T08:34:44.850Z,27.48
2023-05-13T08:37:20.145Z,26.77
2023-05-13T08:39:46.799Z,26.12
2023-05-13T08:42:18.640Z,25.38
2023-05-13T08:44:45.488Z,24.64
2023-05-13T08:47:55.083Z,24.05
2023-05-13T08:50:21.994Z,23.27
2023-05-13T08:52:52.882Z,22.90
2023-05-13T08:55:20.128Z,22.77
2023-05-13T08:57:46.865Z,22.70
2023-05-13T09:00:21.615Z,22.54
2023-05-13T09:02:50.518Z,22.41
2023-05-13T09:05:17.527Z,22.41
2023-05-13T09:07:44.169Z,22.43
2023-05-13T09:10:10.973Z,22.39
2023-05-13T09:12:53.876Z,22.28
2023-05-13T09:15:24.933Z,22.19
2023-05-13T09:18:01.973Z,22.17
2023-05-13T09:20:28.796Z,22.23
2023-05-13T09:23:00.491Z,22.25
2023-05-13T09:25:27.642Z,22.25
2023-05-13T09:27:58.076Z,22.27
2023-05-13T09:30:29.492Z,22.35
2023-05-13T09:33:10.225Z,22.49
2023-05-13T09:35:40.255Z,22.62
2023-05-13T09:38:14.011Z,22.63
2023-05-13T09:40:41.548Z,22.69
2023-05-13T09:43:08.866Z,22.78
2023-05-13T09:45:35.755Z,22.83
2023-05-13T09:48:02.477Z,22.85
2023-05-13T09:50:29.846Z,22.71
2023-05-13T09:52:56.418Z,22.70
2023-05-13T09:55:23.289Z,22.69
2023-05-13T09:57:50.068Z,22.64
2023-05-13T10:00:29.002Z,22.54
2023-05-13T10:02:59.237Z,22.58
2023-05-13T10:05:25.952Z,22.63
2023-05-13T10:07:52.622Z,22.67
2023-05-13T10:10:19.502Z,22.59
2023-05-13T10:12:46.269Z,22.62
2023-05-13T10:15:13.021Z,22.78
2023-05-13T10:17:39.763Z,23.05
2023-05-13T10:20:06.743Z,23.27
2023-05-13T10:22:34.300Z,23.43
2023-05-13T10:25:03.387Z,23.61
2023-05-13T10:27:32.771Z,23.75
2023-05-13T10:30:03.228Z,23.68
2023-05-13T10:32:30.560Z,23.54
2023-05-13T10:35:02.712Z,23.53
2023-05-13T10:37:46.128Z,23.69
2023-05-13T10:40:37.548Z,23.71
2023-05-13T10:43:22.219Z,23.50
2023-05-13T10:46:10.111Z,23.24
2023-05-13T10:48:47.813Z,23.20
2023-05-13T10:51:15.833Z,23.06
2023-05-13T10:53:53.357Z,22.76
2023-05-13T10:56:26.270Z,22.37
2023-05-13T10:59:03.520Z,22.22
2023-05-13T11:01:34.186Z,22.40
2023-05-13T11:04:02.694Z,22.57
2023-05-13T11:06:37.427Z,22.77
2023-05-13T11:09:08.205Z,22.98
2023-05-13T11:11:36.019Z,23.05
2023-05-13T11:14:08.670Z,23.15
2023-05-13T11:16:36.670Z,23.16
2023-05-13T11:19:03.876Z,23.09
2023-05-13T11:21:40.666Z,22.96
2023-05-13T11:24:07.946Z,22.86
2023-05-13T11:26:46.970Z,22.82
2023-05-13T11:29:14.114Z,22.71
2023-05-13T11:31:46.416Z,22.77
2023-05-13T11:34:15.834Z,22.68
2023-05-13T11:37:04.362Z,22.52
2023-05-13T11:39:31.800Z,22.16
2023-05-13T11:42:01.037Z,21.94
2023-05-13T11:44:27.988Z,21.79
2023-05-13T11:46:59.841Z,21.50
2023-05-13T11:49:39.621Z,21.35
2023-05-13T11:52:07.407Z,21.34
2023-05-13T11:54:49.013Z,21.50
2023-05-13T11:57:31.926Z,21.87
2023-05-13T12:00:08.094Z,21.94
2023-05-13T12:02:36.996Z,22.15
2023-05-13T12:05:08.016Z,22.38
2023-05-13T12:07:35.123Z,22.51
2023-05-13T12:10:03.621Z,22.58
2023-05-13T12:12:33.800Z,22.59
2023-05-13T12:15:02.516Z,22.51
2023-05-13T12:17:30.253Z,22.38
2023-05-13T12:20:11.937Z,22.27
2023-05-13T12:22:45.175Z,22.13
2023-05-13T12:25:40.075Z,21.98
2023-05-13T12:28:20.537Z,21.85
2023-05-13T12:30:53.602Z,21.73
2023-05-13T12:33:25.663Z,21.62
2023-05-13T12:36:24.927Z,21.59
2023-05-13T12:39:04.750Z,21.60
2023-05-13T12:41:41.697Z,21.42
2023-05-13T12:44:15.452Z,21.29
2023-05-13T12:46:52.478Z,21.24
2023-05-13T12:49:19.342Z,21.42
2023-05-13T12:51:45.890Z,21.73
2023-05-13T12:54:14.395Z,21.91
2023-05-13T12:56:40.998Z,21.90
2023-05-13T12:59:08.272Z,21.77
2023-05-13T13:01:36.086Z,21.62
2023-05-13T13:04:02.908Z,21.45
2023-05-13T13:06:30.462Z,21.28
2023-05-13T13:08:57.420Z,21.24
2023-05-13T13:11:24.216Z,21.43
2023-05-13T13:13:51.449Z,21.54
2023-05-13T13:16:18.466Z,21.53
2023-05-13T13:18:45.462Z,21.37
2023-05-13T13:21:12.228Z,21.15
2023-05-13T13:23:39.086Z,21.00
2023-05-13T13:26:05.759Z,20.89
2023-05-13T13:28:32.396Z,20.84
2023-05-13T13:30:59.438Z,20.75
2023-05-13T13:33:26.210Z,20.69
2023-05-13T13:35:52.777Z,20.67
2023-05-13T13:38:19.387Z,20.69
2023-05-13T13:40:46.123Z,20.78
2023-05-13T13:43:12.794Z,21.08
2023-05-13T13:45:40.082Z,21.49
2023-05-13T13:48:06.911Z,21.91
2023-05-13T13:50:33.675Z,22.07
2023-05-13T13:53:00.383Z,22.07
2023-05-13T13:55:27.053Z,21.96
2023-05-13T13:57:53.740Z,21.80
2023-05-13T14:00:20.676Z,21.65
2023-05-13T14:02:50.957Z,21.53
2023-05-13T14:05:33.457Z,21.47
2023-05-13T14:08:00.201Z,21.57
2023-05-13T14:10:27.070Z,21.80
2023-05-13T14:12:58.412Z,22.14
2023-05-13T14:15:28.072Z,22.41
2023-05-13T14:17:54.886Z,22.63
2023-05-13T14:20:21.816Z,22.86
2023-05-13T14:22:48.652Z,23.04
2023-05-13T14:25:15.544Z,23.24
2023-05-13T14:27:42.303Z,23.38
2023-05-13T14:30:09.293Z,23.43
2023-05-13T14:32:35.886Z,23.21
2023-05-13T14:35:02.546Z,22.96
2023-05-13T14:37:32.749Z,22.85
2023-05-13T14:40:03.696Z,22.76
2023-05-13T14:42:32.123Z,22.64
2023-05-13T14:44:59.306Z,22.53
2023-05-13T14:47:26.389Z,22.44
2023-05-13T14:49:59.668Z,22.46
2023-05-13T14:52:47.212Z,22.53
2023-05-13T14:55:23.097Z,22.65
2023-05-13T14:57:55.950Z,22.57
2023-05-13T15:00:45.323Z,22.47
2023-05-13T15:03:26.715Z,22.30
2023-05-13T15:05:59.917Z,22.20
2023-05-13T15:08:30.071Z,22.29
2023-05-13T15:10:58.482Z,22.50
2023-05-13T15:13:26.599Z,22.70
2023-05-13T15:15:53.232Z,22.82
2023-05-13T15:18:19.857Z,22.76
2023-05-13T15:20:46.580Z,22.62
2023-05-13T15:23:13.271Z,22.47
2023-05-13T15:25:40.101Z,22.28
2023-05-13T15:28:06.662Z,22.09
2023-05-13T15:30:35.771Z,21.95
2023-05-13T15:33:03.564Z,21.81
2023-05-13T15:35:30.284Z,21.69
2023-05-13T15:37:57.056Z,21.59
2023-05-13T15:40:24.041Z,21.45
2023-05-13T15:42:50.809Z,21.24
2023-05-13T15:45:17.413Z,21.04
2023-05-13T15:47:44.198Z,20.89
2023-05-13T15:50:10.972Z,20.86
2023-05-13T15:52:37.944Z,20.92
2023-05-13T15:55:05.988Z,20.90
2023-05-13T15:57:32.710Z,20.85
2023-05-13T16:00:00.470Z,20.90
2023-05-13T16:02:29.507Z,20.94
2023-05-13T16:04:56.094Z,21.01
2023-05-13T16:07:23.609Z,21.09
2023-05-13T16:09:54.010Z,21.16
2023-05-13T16:12:20.955Z,21.27
2023-05-13T16:14:49.115Z,21.32
2023-05-13T16:17:15.830Z,21.37
2023-05-13T16:19:42.671Z,21.37
2023-05-13T16:22:32.214Z,21.31
2023-05-13T16:25:01.088Z,21.29
2023-05-13T16:27:28.253Z,21.29
2023-05-13T16:29:55.896Z,21.28
2023-05-13T16:32:23.153Z,21.27
2023-05-13T16:34:49.971Z,21.26
2023-05-13T16:37:16.693Z,21.24
2023-05-13T16:39:43.761Z,21.23
2023-05-13T16:42:10.416Z,21.22
2023-05-13T16:44:37.166Z,21.21
2023-05-13T16:47:06.234Z,21.20
2023-05-13T16:49:32.893Z,21.15
2023-05-13T16:51:59.513Z,21.09
2023-05-13T16:54:27.873Z,21.01
2023-05-13T16:56:54.465Z,20.91
2023-05-13T16:59:22.642Z,20.80
2023-05-13T17:01:49.873Z,20.69
2023-05-13T17:04:17.534Z,20.55
2023-05-13T17:06:44.121Z,20.42
2023-05-13T17:09:11.102Z,20.29
2023-05-13T17:11:38.296Z,20.12
2023-05-13T17:14:05.134Z,19.96
2023-05-13T17:16:34.950Z,19.78
2023-05-13T17:19:02.008Z,19.63
2023-05-13T17:21:29.864Z,19.46
2023-05-13T17:23:56.554Z,19.27
2023-05-13T17:26:23.324Z,19.06
2023-05-13T17:28:50.530Z,18.84
2023-05-13T17:31:17.376Z,18.62
2023-05-13T17:33:44.226Z,18.42
2023-05-13T17:36:11.569Z,18.24
2023-05-13T17:38:38.267Z,18.07
2023-05-13T17:41:05.031Z,17.90
2023-05-13T17:43:31.662Z,17.72
2023-05-13T17:45:58.745Z,17.55
2023-05-13T17:48:26.371Z,17.38
2023-05-13T17:50:53.559Z,17.22
2023-05-13T17:53:20.389Z,17.06
2023-05-13T17:55:48.012Z,16.91
2023-05-13T17:58:15.834Z,16.77
2023-05-13T18:00:42.876Z,16.63
2023-05-13T18:03:09.648Z,16.48
2023-05-13T18:05:36.588Z,16.29
2023-05-13T18:08:05.701Z,16.15
2023-05-13T18:10:32.330Z,16.05
2023-05-13T18:12:58.950Z,15.93
2023-05-13T18:15:25.629Z,15.81
2023-05-13T18:17:52.314Z,15.68
2023-05-13T18:20:19.229Z,15.56
2023-05-13T18:22:45.825Z,15.45
2023-05-13T18:25:12.611Z,15.29
2023-05-13T18:27:39.353Z,15.15
2023-05-13T18:30:07.197Z,15.05
2023-05-13T18:32:33.847Z,14.96
2023-05-13T18:35:00.569Z,14.86
2023-05-13T18:37:27.187Z,14.75
2023-05-13T18:39:56.495Z,14.63
2023-05-13T18:42:23.719Z,14.51
2023-05-13T18:44:51.062Z,14.41
2023-05-13T18:47:17.585Z,14.28
2023-05-13T18:49:44.318Z,14.17
2023-05-13T18:52:10.997Z,14.06
2023-05-13T18:54:37.593Z,13.98
2023-05-13T18:57:04.778Z,13.87
2023-05-13T18:59:31.433Z,13.76
2023-05-13T19:01:58.448Z,13.64
2023-05-13T19:04:26.101Z,13.52
2023-05-13T19:06:53.676Z,13.41
2023-05-13T19:09:21.823Z,13.32
2023-05-13T19:11:48.394Z,13.23
2023-05-13T19:14:14.948Z,13.13
2023-05-13T19:16:41.679Z,13.02
2023-05-13T19:19:08.602Z,12.92
2023-05-13T19:21:35.422Z,12.81
2023-05-13T19:24:02.787Z,12.71
2023-05-13T19:26:29.912Z,12.61
2023-05-13T19:29:03.980Z,12.51
2023-05-13T19:31:31.692Z,12.43
2023-05-13T19:34:00.377Z,12.35
2023-05-13T19:36:27.388Z,12.28
2023-05-13T19:38:54.788Z,12.20
2023-05-13T19:41:29.562Z,12.12
2023-05-13T19:43:56.266Z,12.05
2023-05-13T19:46:23.586Z,11.97
2023-05-13T19:48:50.330Z,11.90
2023-05-13T19:51:17.582Z,11.83
2023-05-13T19:53:44.211Z,11.76
2023-05-13T19:56:10.992Z,11.68
2023-05-13T19:58:44.695Z,11.61
2023-05-13T20:01:13.717Z,11.55
2023-05-13T20:03:41.013Z,11.47
2023-05-13T20:06:07.724Z,11.39
2023-05-13T20:08:35.111Z,11.30
2023-05-13T20:11:02.276Z,11.21
2023-05-13T20:13:29.431Z,11.13
2023-05-13T20:15:57.010Z,11.08
2023-05-13T20:18:23.831Z,11.02
2023-05-13T20:20:51.154Z,10.95
2023-05-13T20:23:17.829Z,10.90
2023-05-13T20:25:46.639Z,10.83
2023-05-13T20:28:13.235Z,10.78
2023-05-13T20:30:42.122Z,10.74
2023-05-13T20:33:08.904Z,10.69
2023-05-13T20:35:36.395Z,10.61
2023-05-13T20:38:03.062Z,10.56
2023-05-13T20:40:29.682Z,10.51
2023-05-13T20:42:56.597Z,10.44
2023-05-13T20:45:23.451Z,10.36
2023-05-13T20:47:50.616Z,10.30
2023-05-13T20:50:17.364Z,10.23
2023-05-13T20:52:43.986Z,10.15
2023-05-13T20:55:10.715Z,10.07
2023-05-13T20:57:37.400Z,10.01
2023-05-13T21:00:05.361Z,9.96
2023-05-13T21:02:31.984Z,9.90
2023-05-13T21:04:58.605Z,9.83
2023-05-13T21:07:25.330Z,9.76
2023-05-13T21:09:52.087Z,9.70
2023-05-13T21:12:18.710Z,9.68
2023-05-13T21:14:47.147Z,9.64
2023-05-13T21:17:13.897Z,9.59
2023-05-13T21:19:40.540Z,9.54
2023-05-13T21:22:07.182Z,9.50
2023-05-13T21:24:34.046Z,9.41
2023-05-13T21:27:00.658Z,9.31
2023-05-13T21:29:29.561Z,9.25
2023-05-13T21:31:56.184Z,9.20
2023-05-13T21:34:28.304Z,9.14
2023-05-13T21:36:54.933Z,9.05
2023-05-13T21:39:21.584Z,8.99
2023-05-13T21:41:48.322Z,8.94
2023-05-13T21:44:15.663Z,8.89
2023-05-13T21:46:42.291Z,8.84
2023-05-13T21:49:09.027Z,8.78
2023-05-13T21:51:35.700Z,8.73
2023-05-13T21:54:02.399Z,8.68
2023-05-13T21:56:28.986Z,8.66
2023-05-13T21:58:58.309Z,8.61
2023-05-13T22:01:29.017Z,8.54
2023-05-13T22:03:55.695Z,8.48
2023-05-13T22:06:22.375Z,8.41
2023-05-13T22:08:49.044Z,8.33
2023-05-13T22:11:15.815Z,8.28
2023-05-13T22:13:43.957Z,8.38
2023-05-13T22:16:11.264Z,9.23
2023-05-13T22:18:41.390Z,10.15
2023-05-13T22:21:08.398Z,10.82
2023-05-13T22:23:35.051Z,11.29
2023-05-13T22:26:01.671Z,11.65
2023-05-13T22:28:28.360Z,11.96
2023-05-13T22:30:56.266Z,12.19
2023-05-13T22:33:22.926Z,12.36
2023-05-13T22:35:49.683Z,12.51
2023-05-13T22:38:16.367Z,12.66
2023-05-13T22:40:42.947Z,12.77
2023-05-13T22:43:09.709Z,12.33
2023-05-13T22:45:37.041Z,11.54
2023-05-13T22:48:03.752Z,10.89
2023-05-13T22:50:30.669Z,10.40
2023-05-13T22:52:57.363Z,10.00
2023-05-13T22:55:24.102Z,9.68
2023-05-13T22:57:50.879Z,9.39
2023-05-13T23:00:17.682Z,9.14
2023-05-13T23:02:44.339Z,8.90
2023-05-13T23:05:11.273Z,8.68
2023-05-13T23:07:37.903Z,8.49
2023-05-13T23:10:05.214Z,8.31
2023-05-13T23:12:32.810Z,8.15
2023-05-13T23:14:59.900Z,8.00
2023-05-13T23:17:26.569Z,7.87
2023-05-13T23:19:53.210Z,7.75
2023-05-13T23:22:19.882Z,7.64
2023-05-13T23:24:46.660Z,7.55
2023-05-13T23:27:13.457Z,7.46
2023-05-13T23:29:41.224Z,7.43
2023-05-13T23:32:07.846Z,8.05
2023-05-13T23:34:34.491Z,8.99
2023-05-13T23:37:01.069Z,9.72
2023-05-13T23:39:27.685Z,10.24
2023-05-13T23:41:54.295Z,10.63
2023-05-13T23:44:21.005Z,10.95
2023-05-13T23:46:47.654Z,11.21
2023-05-13T23:49:14.651Z,11.44
2023-05-13T23:51:41.279Z,11.62
2023-05-13T23:54:08.172Z,11.21
2023-05-13T23:56:34.873Z,10.43
2023-05-13T23:59:01.479Z,9.82
